Atlantic Beach, North Carolina
Current Conditions -  °F | °C
As of 3:58 AM on Saturday 25 Oct 2014 (Local Time) from KMRH Reporting Station
Clear Clear  
Wind Chill: 54°   Ceiling: Unl
Heat Index: 54°   Visibility: 10mi
Dew Point: 50°   Wind: 6mph
Humidity: 86%   Direction: 310°NW
Pressure: 29.96"   Gusts: NA
Location:  34.7°N, 76.74°W
Report Text: KMRH 250758Z AUTO 31005KT 10SM CLR 12/10 A2996 RMK AO2 SLP145 T01220100 TSNO
Loading
Personal Weather Stations






























Interactive Weather Map
Tropical Storm Tracking
New forecast layout! Learn more

10-Day Weather Forecast

Advertisements
Track Severe Weather on mobile